Time;durP1;ratioP1;P1;durP2;ratioP2;P2;SDS_P1;SDS_P2;PMS_P1;PMS_P2;Temp;Humidity;BMP_temperature;BMP_pressure;BME280_temperature;BME280_humidity;BME280_pressure;Samples;Min_cycle;Max_cycle;Signal;HPM_P1;HPM_P2
2023/02/14 00:00:28;;;;;;;10.27;6.47;;;8.50;99.90;;;;;;4207603;28;20054;-67
2023/02/14 00:02:29;;;;;;;11.80;5.93;;;8.50;99.90;;;;;;4209854;28;20111;-67
2023/02/14 00:04:29;;;;;;;9.18;5.82;;;8.60;99.90;;;;;;4218725;28;20031;-68
2023/02/14 00:06:34;;;;;;;9.50;5.53;;;8.50;99.90;;;;;;4214497;28;20062;-68
2023/02/14 00:08:35;;;;;;;11.70;5.20;;;8.60;99.90;;;;;;4214374;28;20085;-68
2023/02/14 00:10:36;;;;;;;8.50;5.50;;;8.50;99.90;;;;;;4212269;28;20085;-67
2023/02/14 00:12:36;;;;;;;8.68;5.80;;;8.60;99.90;;;;;;4215826;28;20538;-67
2023/02/14 00:16:56;;;;;;;9.25;6.07;;;8.50;99.90;;;;;;4213453;28;20105;-68
2023/02/14 00:19:03;;;;;;;10.82;5.88;;;8.50;99.90;;;;;;4217706;28;20032;-67
2023/02/14 00:21:03;;;;;;;9.18;5.53;;;8.50;99.90;;;;;;4211784;27;20424;-68
2023/02/14 00:23:04;;;;;;;8.73;5.95;;;8.50;99.90;;;;;;4213387;28;20028;-68
2023/02/14 00:25:05;;;;;;;11.50;6.53;;;8.50;99.90;;;;;;4211708;28;20082;-68
2023/02/14 00:27:05;;;;;;;9.73;5.78;;;8.50;99.90;;;;;;4211186;28;20044;-67
2023/02/14 00:29:08;;;;;;;9.38;5.80;;;8.50;99.90;;;;;;4211474;28;20056;-67
2023/02/14 00:31:08;;;;;;;8.65;5.53;;;8.50;99.90;;;;;;4210046;28;20118;-67
2023/02/14 00:33:09;;;;;;;9.43;5.90;;;8.50;99.90;;;;;;4211789;28;20036;-67
2023/02/14 00:35:10;;;;;;;13.38;6.28;;;8.50;99.90;;;;;;4209976;28;20035;-68
2023/02/14 00:37:11;;;;;;;11.63;6.50;;;8.50;99.90;;;;;;4211723;28;20029;-68
2023/02/14 00:39:13;;;;;;;9.25;6.00;;;8.50;99.90;;;;;;4211985;28;20035;-68
2023/02/14 00:41:18;;;;;;;;;;;8.40;99.90;;;;;;4209792;28;20105;-67
2023/02/14 00:43:18;;;;;;;11.98;6.28;;;8.50;99.90;;;;;;4210048;28;19912;-68
2023/02/14 00:45:19;;;;;;;11.13;6.68;;;8.40;99.90;;;;;;4211187;28;20040;-68
2023/02/14 00:47:19;;;;;;;9.30;5.70;;;8.40;99.90;;;;;;4212009;28;24459;-67
2023/02/14 00:49:20;;;;;;;9.80;5.93;;;8.40;99.90;;;;;;4211748;28;20096;-68
2023/02/14 00:51:21;;;;;;;8.70;5.65;;;8.40;99.90;;;;;;4209746;28;20041;-68
2023/02/14 00:53:22;;;;;;;8.00;5.57;;;8.40;99.90;;;;;;4211273;28;20032;-67
2023/02/14 00:55:22;;;;;;;10.20;6.18;;;8.40;99.90;;;;;;4212230;28;20479;-67
2023/02/14 00:57:23;;;;;;;13.15;6.63;;;8.40;99.90;;;;;;4211181;28;20118;-67
2023/02/14 00:59:24;;;;;;;9.75;6.05;;;8.40;99.90;;;;;;4211844;28;20032;-67
2023/02/14 01:01:24;;;;;;;9.48;6.10;;;8.40;99.90;;;;;;4209629;28;20043;-68
2023/02/14 01:03:25;;;;;;;10.40;5.95;;;8.40;99.90;;;;;;4211594;28;20491;-68
2023/02/14 01:05:26;;;;;;;9.02;5.72;;;8.40;99.90;;;;;;4210329;28;20059;-67
2023/02/14 01:07:26;;;;;;;10.77;5.75;;;8.40;99.90;;;;;;4211346;28;20032;-67
2023/02/14 01:09:27;;;;;;;10.65;6.07;;;8.40;99.90;;;;;;4210721;28;20376;-67
2023/02/14 01:11:28;;;;;;;11.95;6.18;;;8.30;99.90;;;;;;4208197;28;20172;-68
2023/02/14 01:13:28;;;;;;;10.65;6.35;;;8.30;99.90;;;;;;4210379;28;20111;-68
2023/02/14 01:15:30;;;;;;;10.25;6.05;;;8.30;99.90;;;;;;4210274;28;20415;-68
2023/02/14 01:17:30;;;;;;;10.57;6.47;;;8.30;99.90;;;;;;4211432;28;20097;-68
2023/02/14 01:19:31;;;;;;;11.20;6.28;;;8.30;99.90;;;;;;4211429;28;20032;-67
2023/02/14 01:21:33;;;;;;;11.02;6.47;;;8.20;99.90;;;;;;4209101;28;20085;-67
2023/02/14 01:23:33;;;;;;;9.53;5.53;;;8.20;99.90;;;;;;4210494;28;20040;-67
2023/02/14 01:25:36;;;;;;;9.02;6.03;;;8.20;99.90;;;;;;4210244;28;20031;-68
2023/02/14 01:27:37;;;;;;;11.30;5.70;;;8.20;99.90;;;;;;4210957;28;20429;-68
2023/02/14 01:29:37;;;;;;;9.85;6.10;;;8.20;99.90;;;;;;4211322;28;20086;-68
2023/02/14 01:31:38;;;;;;;10.02;6.50;;;8.20;99.90;;;;;;4208971;28;20782;-67
2023/02/14 01:33:40;;;;;;;9.90;6.13;;;8.20;99.90;;;;;;4211309;28;20394;-68
2023/02/14 01:35:40;;;;;;;10.38;6.20;;;8.10;99.90;;;;;;4209747;28;20029;-68
2023/02/14 01:37:41;;;;;;;11.60;5.63;;;8.10;99.90;;;;;;4211291;28;20147;-67
2023/02/14 01:39:42;;;;;;;10.40;6.25;;;8.10;99.90;;;;;;4210816;28;20086;-67
2023/02/14 01:41:44;;;;;;;10.82;6.22;;;8.10;99.90;;;;;;4209355;28;20487;-68
2023/02/14 01:43:55;;;;;;;11.70;6.22;;;8.10;99.90;;;;;;4210697;28;20399;-67
2023/02/14 01:45:55;;;;;;;9.57;6.15;;;8.10;99.90;;;;;;4210194;28;20125;-68
2023/02/14 01:47:58;;;;;;;9.95;5.68;;;8.00;99.90;;;;;;4210215;28;20024;-68
2023/02/14 01:50:05;;;;;;;11.00;6.15;;;8.00;99.90;;;;;;4210143;28;20490;-68
2023/02/14 01:52:13;;;;;;;9.55;6.18;;;8.00;99.90;;;;;;4206016;28;20036;-67
2023/02/14 01:54:16;;;;;;;10.50;6.07;;;8.00;99.90;;;;;;4209562;28;20028;-68
2023/02/14 01:56:23;;;;;;;;;;;7.90;99.90;;;;;;4205277;28;20398;-68
2023/02/14 01:58:28;;;;;;;11.05;6.32;;;8.00;99.90;;;;;;4211403;28;20329;-68
2023/02/14 02:02:48;;;;;;;11.05;6.07;;;7.90;99.90;;;;;;4208027;28;20486;-67
2023/02/14 02:04:52;;;;;;;9.77;6.20;;;7.90;99.90;;;;;;4210989;28;20028;-68
2023/02/14 02:06:59;;;;;;;14.68;7.30;;;7.90;99.90;;;;;;4206071;28;20032;-68
2023/02/14 02:09:27;;;;;;;12.10;6.25;;;7.90;99.90;;;;;;4210581;28;20063;-67
2023/02/14 02:11:28;;;;;;;10.55;6.45;;;7.80;99.90;;;;;;4208389;28;20047;-67
2023/02/14 02:13:29;;;;;;;12.48;6.53;;;7.80;99.90;;;;;;4205764;28;20032;-67
2023/02/14 02:15:34;;;;;;;9.38;6.22;;;7.80;99.90;;;;;;4208978;28;20667;-67
2023/02/14 02:17:54;;;;;;;11.57;6.40;;;7.80;99.90;;;;;;4210000;28;20475;-67
2023/02/14 02:20:13;;;;;;;12.05;6.90;;;7.80;99.90;;;;;;4206335;28;20043;-68
2023/02/14 02:22:54;;;;;;;9.73;5.97;;;7.80;99.90;;;;;;4209295;28;20024;-69
2023/02/14 02:25:20;;;;;;;11.23;6.10;;;7.70;99.90;;;;;;4195313;28;20556;-67
2023/02/14 02:27:57;;;;;;;11.25;5.97;;;7.70;99.90;;;;;;4177367;28;20090;-68
2023/02/14 02:30:18;;;;;;;9.48;5.97;;;7.70;99.90;;;;;;4089692;29;20442;-67
2023/02/14 02:32:49;;;;;;;8.65;5.60;;;7.70;99.90;;;;;;4148046;28;20396;-68
2023/02/14 02:35:19;;;;;;;10.98;6.07;;;7.60;99.90;;;;;;4188565;28;20422;-68
2023/02/14 02:37:35;;;;;;;11.30;5.80;;;7.60;99.90;;;;;;4193129;28;20074;-67
2023/02/14 02:39:57;;;;;;;9.85;5.78;;;7.60;99.90;;;;;;4191516;28;20028;-67
2023/02/14 02:42:05;;;;;;;8.20;5.45;;;7.50;99.90;;;;;;4191456;28;20108;-68
2023/02/14 02:44:25;;;;;;;10.25;6.03;;;7.50;99.90;;;;;;4193280;28;20119;-68
2023/02/14 02:46:57;;;;;;;11.23;6.20;;;7.40;99.90;;;;;;4190083;28;20104;-68
2023/02/14 02:54:28;;;;;;;12.98;6.97;;;7.30;99.90;;;;;;4192972;28;20124;-67
2023/02/14 02:56:45;;;;;;;9.82;5.93;;;7.30;99.90;;;;;;4189874;28;20106;-67
2023/02/14 02:59:03;;;;;;;10.25;6.25;;;7.20;99.90;;;;;;4192701;28;20029;-68
2023/02/14 03:01:11;;;;;;;10.07;6.53;;;7.20;99.90;;;;;;4191410;28;20028;-68
2023/02/14 03:05:34;;;;;;;11.70;5.72;;;7.20;99.90;;;;;;4190918;28;20025;-68
2023/02/14 03:07:40;;;;;;;12.43;6.50;;;7.20;99.90;;;;;;4192172;28;20106;-67
2023/02/14 03:09:41;;;;;;;11.68;6.53;;;7.20;99.90;;;;;;4192050;28;20027;-67
2023/02/14 03:12:03;;;;;;;10.43;6.97;;;7.20;99.90;;;;;;4190584;28;20040;-67
2023/02/14 03:14:09;;;;;;;10.50;6.13;;;7.20;99.90;;;;;;4192732;28;20040;-67
2023/02/14 03:16:22;;;;;;;10.98;6.53;;;7.20;99.90;;;;;;4192262;28;20032;-67
2023/02/14 03:21:20;;;;;;;14.75;7.30;;;7.20;99.90;;;;;;4191157;28;20052;-67
2023/02/14 03:23:26;;;;;;;14.15;7.07;;;7.20;99.90;;;;;;4192189;28;20036;-68
2023/02/14 03:26:16;;;;;;;11.93;6.25;;;7.20;99.90;;;;;;4192367;28;20365;-67
2023/02/14 03:28:41;;;;;;;11.93;6.53;;;7.20;99.90;;;;;;4180160;28;20040;-68
2023/02/14 03:31:03;;;;;;;12.40;6.70;;;7.20;99.90;;;;;;4189503;28;20438;-67
2023/02/14 03:33:15;;;;;;;10.05;6.20;;;7.20;99.90;;;;;;4175247;28;20087;-68
2023/02/14 03:35:34;;;;;;;10.43;6.22;;;7.20;99.90;;;;;;4175112;28;20532;-67
2023/02/14 03:38:08;;;;;;;11.57;6.95;;;7.20;99.90;;;;;;4175958;28;20396;-67
2023/02/14 03:40:21;;;;;;;13.20;7.15;;;7.20;99.90;;;;;;4169668;28;20033;-68
2023/02/14 03:42:26;;;;;;;10.85;6.53;;;7.20;99.90;;;;;;4196457;28;20495;-68
2023/02/14 03:44:30;;;;;;;12.73;7.03;;;7.20;99.90;;;;;;4202326;28;20028;-67
2023/02/14 03:46:44;;;;;;;13.75;7.60;;;7.20;99.90;;;;;;4193855;28;20094;-67
2023/02/14 03:48:47;;;;;;;13.43;6.88;;;7.20;99.90;;;;;;4205869;28;20107;-67
2023/02/14 03:50:50;;;;;;;14.43;7.68;;;7.10;99.90;;;;;;4197178;28;20399;-68
2023/02/14 03:52:52;;;;;;;11.60;7.40;;;7.10;99.90;;;;;;4199107;28;20062;-68
2023/02/14 03:54:56;;;;;;;11.55;6.85;;;7.10;99.90;;;;;;4203152;28;20033;-67
2023/02/14 03:57:20;;;;;;;17.85;7.97;;;7.10;99.90;;;;;;4192680;28;20036;-67
2023/02/14 03:59:24;;;;;;;14.07;7.63;;;7.10;99.90;;;;;;4203411;28;20445;-67
2023/02/14 04:01:36;;;;;;;13.75;7.63;;;7.10;99.90;;;;;;4196599;28;20511;-68
2023/02/14 04:03:39;;;;;;;15.45;8.57;;;7.10;99.90;;;;;;4207798;28;20036;-68
2023/02/14 04:05:42;;;;;;;13.75;7.53;;;7.10;99.90;;;;;;4208986;28;20028;-67
2023/02/14 04:07:47;;;;;;;15.30;7.97;;;7.10;99.90;;;;;;4200769;28;20033;-67
2023/02/14 04:09:48;;;;;;;14.63;7.75;;;7.10;99.90;;;;;;4193677;28;20433;-68
2023/02/14 04:11:52;;;;;;;12.85;7.65;;;7.10;99.90;;;;;;4201628;28;20028;-67
2023/02/14 04:13:52;;;;;;;12.05;7.25;;;7.10;99.90;;;;;;4202385;28;20032;-67
2023/02/14 04:15:53;;;;;;;12.85;7.35;;;7.10;99.90;;;;;;4194988;28;20040;-68
2023/02/14 04:20:13;;;;;;;11.20;7.05;;;7.10;99.90;;;;;;4196115;28;20032;-68
2023/02/14 04:22:13;;;;;;;12.15;7.07;;;7.10;99.90;;;;;;4200017;28;20051;-67
2023/02/14 04:24:14;;;;;;;11.13;7.47;;;7.10;99.90;;;;;;4201574;28;20024;-68
2023/02/14 04:26:14;;;;;;;11.20;6.95;;;7.10;99.90;;;;;;4206563;28;20059;-67
2023/02/14 04:28:15;;;;;;;13.98;7.72;;;7.10;99.90;;;;;;4217928;28;20024;-67
2023/02/14 04:30:16;;;;;;;11.40;7.18;;;7.10;99.90;;;;;;4218052;28;20067;-68
2023/02/14 04:32:19;;;;;;;13.90;7.47;;;7.10;99.90;;;;;;4208712;28;20024;-68
2023/02/14 04:34:20;;;;;;;12.70;6.57;;;7.10;99.90;;;;;;4221388;27;20106;-67
2023/02/14 04:36:20;;;;;;;11.88;6.70;;;7.10;99.90;;;;;;4213705;28;20054;-68
2023/02/14 04:38:21;;;;;;;9.75;6.82;;;7.20;99.90;;;;;;4213579;28;20047;-67
2023/02/14 04:40:22;;;;;;;12.48;7.40;;;7.20;99.90;;;;;;4205836;28;20040;-67
2023/02/14 04:42:22;;;;;;;13.02;7.47;;;7.20;99.90;;;;;;4212408;28;20047;-68
2023/02/14 04:44:23;;;;;;;12.25;7.90;;;7.20;99.90;;;;;;4212767;28;20101;-67
2023/02/14 04:46:23;;;;;;;13.27;7.85;;;7.20;99.90;;;;;;4218866;28;20043;-68
2023/02/14 04:48:24;;;;;;;13.93;7.82;;;7.20;99.90;;;;;;4217885;28;20036;-68
2023/02/14 04:50:25;;;;;;;10.57;7.10;;;7.20;99.90;;;;;;4214781;28;20054;-67
2023/02/14 04:52:25;;;;;;;12.75;7.40;;;7.20;99.90;;;;;;4212462;28;20024;-67
2023/02/14 04:54:26;;;;;;;11.75;7.55;;;7.20;99.90;;;;;;4217353;27;20039;-67
2023/02/14 04:56:27;;;;;;;12.40;7.15;;;7.10;99.90;;;;;;4220467;27;20025;-68
2023/02/14 04:58:27;;;;;;;13.43;7.13;;;7.10;99.90;;;;;;4213776;28;20109;-67
2023/02/14 05:00:28;;;;;;;12.48;7.32;;;7.10;99.90;;;;;;4203208;28;20094;-68
2023/02/14 05:02:28;;;;;;;13.48;7.72;;;7.10;99.90;;;;;;4188110;28;20036;-68
2023/02/14 05:04:29;;;;;;;11.02;7.00;;;7.10;99.90;;;;;;4183703;28;20369;-67
2023/02/14 05:06:30;;;;;;;14.63;7.45;;;7.10;99.90;;;;;;4188743;28;20127;-68
2023/02/14 05:08:30;;;;;;;13.13;7.60;;;7.00;99.90;;;;;;4188817;28;20033;-67
2023/02/14 05:10:31;;;;;;;14.15;8.15;;;7.00;99.90;;;;;;4188963;28;20357;-68
2023/02/14 05:12:31;;;;;;;15.18;7.82;;;7.00;99.90;;;;;;4194886;28;20062;-68
2023/02/14 05:14:32;;;;;;;13.52;8.55;;;7.00;99.90;;;;;;4192565;28;20059;-68
2023/02/14 05:16:33;;;;;;;15.30;8.02;;;7.00;99.90;;;;;;4189739;28;20052;-67
2023/02/14 05:18:33;;;;;;;15.02;8.07;;;7.00;99.90;;;;;;4191210;28;20044;-67
2023/02/14 05:20:34;;;;;;;13.77;7.57;;;7.00;99.90;;;;;;4192326;28;20043;-68
2023/02/14 05:22:34;;;;;;;14.52;7.90;;;7.00;99.90;;;;;;4199091;28;20040;-68
2023/02/14 05:24:35;;;;;;;13.43;7.90;;;7.00;99.90;;;;;;4195811;28;20041;-68
2023/02/14 05:26:36;;;;;;;13.35;8.40;;;7.00;99.90;;;;;;4201062;28;20127;-68
2023/02/14 05:28:39;;;;;;;14.18;7.70;;;7.00;99.90;;;;;;4210923;28;20119;-68
2023/02/14 05:30:40;;;;;;;13.70;7.53;;;6.90;99.90;;;;;;4188198;28;20081;-67
2023/02/14 05:32:41;;;;;;;15.60;8.20;;;6.90;99.90;;;;;;4214515;28;20038;-66
2023/02/14 05:34:41;;;;;;;15.20;8.43;;;6.90;99.90;;;;;;4207950;28;20032;-67
2023/02/14 05:36:42;;;;;;;13.23;7.75;;;6.90;99.90;;;;;;4210241;28;20078;-67
2023/02/14 05:38:42;;;;;;;12.48;7.53;;;6.90;99.90;;;;;;4203865;28;20040;-68
2023/02/14 05:40:43;;;;;;;14.20;8.07;;;6.90;99.90;;;;;;4206671;28;20125;-67
2023/02/14 05:42:44;;;;;;;13.80;7.15;;;6.90;99.90;;;;;;4211063;28;20032;-68
2023/02/14 05:44:45;;;;;;;12.70;7.38;;;6.90;99.90;;;;;;4209185;28;20031;-67
2023/02/14 05:46:45;;;;;;;13.40;7.53;;;6.80;99.90;;;;;;4199662;28;20088;-68
2023/02/14 05:48:46;;;;;;;11.43;7.47;;;6.80;99.90;;;;;;4207891;28;20111;-68
2023/02/14 05:50:46;;;;;;;12.95;7.93;;;6.80;99.90;;;;;;4201572;28;20401;-68
2023/02/14 05:52:47;;;;;;;13.23;8.25;;;6.80;99.90;;;;;;4198867;28;20029;-67
2023/02/14 05:54:48;;;;;;;13.40;8.13;;;6.80;99.90;;;;;;4205725;28;20039;-68
2023/02/14 05:56:48;;;;;;;12.50;8.45;;;6.70;99.90;;;;;;4204704;28;20033;-68
2023/02/14 05:58:49;;;;;;;12.82;8.10;;;6.70;99.90;;;;;;4204633;28;20047;-67
2023/02/14 06:00:49;;;;;;;15.75;9.07;;;6.70;99.90;;;;;;4202044;28;20090;-68
2023/02/14 06:02:50;;;;;;;16.27;10.02;;;6.70;99.90;;;;;;4205002;28;20517;-68
2023/02/14 06:04:51;;;;;;;15.25;8.93;;;6.70;99.90;;;;;;4205891;28;20494;-68
2023/02/14 06:06:51;;;;;;;18.58;10.48;;;6.70;99.90;;;;;;4204593;28;20111;-67
2023/02/14 06:08:52;;;;;;;17.38;9.45;;;6.70;99.90;;;;;;4206357;28;20033;-67
2023/02/14 06:10:52;;;;;;;15.20;9.25;;;6.60;99.90;;;;;;4201505;28;20039;-68
2023/02/14 06:12:53;;;;;;;15.90;9.38;;;6.70;99.90;;;;;;4208318;28;20038;-68
2023/02/14 06:14:54;;;;;;;16.42;9.52;;;6.70;99.90;;;;;;4201485;28;20028;-67
2023/02/14 06:16:54;;;;;;;16.20;9.57;;;6.70;99.90;;;;;;4202194;28;20423;-67
2023/02/14 06:18:55;;;;;;;16.08;9.77;;;6.70;99.90;;;;;;4206760;28;20365;-67
2023/02/14 06:20:56;;;;;;;17.02;9.75;;;6.70;99.90;;;;;;4205259;28;20040;-67
2023/02/14 06:22:56;;;;;;;16.17;10.07;;;6.70;99.90;;;;;;4201756;28;20383;-66
2023/02/14 06:24:57;;;;;;;17.45;9.95;;;6.70;99.90;;;;;;4201444;28;20043;-68
2023/02/14 06:26:58;;;;;;;16.23;9.68;;;6.70;99.90;;;;;;4205688;28;20073;-68
2023/02/14 06:28:59;;;;;;;19.17;9.70;;;6.60;99.90;;;;;;4204463;28;20032;-68
2023/02/14 06:31:00;;;;;;;17.38;10.30;;;6.70;99.90;;;;;;4205714;28;20043;-68
2023/02/14 06:33:00;;;;;;;17.65;10.23;;;6.60;99.90;;;;;;4201150;28;20036;-68
2023/02/14 06:35:02;;;;;;;14.30;9.55;;;6.60;99.90;;;;;;4202564;28;20078;-68
2023/02/14 06:37:02;;;;;;;16.50;10.07;;;6.60;99.90;;;;;;4204956;28;20032;-68
2023/02/14 06:39:03;;;;;;;16.58;10.35;;;6.70;99.90;;;;;;4200383;28;20115;-68
2023/02/14 06:41:06;;;;;;;15.65;9.88;;;6.60;99.90;;;;;;4199550;28;20029;-68
2023/02/14 06:43:06;;;;;;;16.65;9.77;;;6.60;99.90;;;;;;4202339;28;20054;-69
2023/02/14 06:45:07;;;;;;;16.67;9.73;;;6.60;99.90;;;;;;4198126;28;20123;-68
2023/02/14 06:47:08;;;;;;;18.27;10.82;;;6.60;99.90;;;;;;4198610;28;21389;-68
2023/02/14 06:49:09;;;;;;;19.27;10.80;;;6.60;99.90;;;;;;4202781;28;20040;-68
2023/02/14 06:51:10;;;;;;;17.10;10.25;;;6.60;99.90;;;;;;4200883;28;20131;-68
2023/02/14 06:53:11;;;;;;;16.25;9.70;;;6.70;99.90;;;;;;4197930;28;20050;-67
2023/02/14 06:55:12;;;;;;;18.55;11.13;;;6.60;99.90;;;;;;4196486;28;20064;-68
2023/02/14 06:57:13;;;;;;;19.05;10.45;;;6.60;99.90;;;;;;4198503;28;20384;-68
2023/02/14 06:59:13;;;;;;;22.23;10.75;;;6.60;99.90;;;;;;4194674;28;20047;-68
2023/02/14 07:01:14;;;;;;;17.73;10.68;;;6.60;99.90;;;;;;4199714;28;20525;-68
2023/02/14 07:03:14;;;;;;;20.25;12.25;;;6.60;99.90;;;;;;4198342;28;20169;-68
2023/02/14 07:05:17;;;;;;;18.40;11.13;;;6.60;99.90;;;;;;4200504;28;20040;-68
2023/02/14 07:07:18;;;;;;;22.38;11.55;;;6.60;99.90;;;;;;4198042;28;20024;-69
2023/02/14 07:09:18;;;;;;;20.77;12.82;;;6.50;99.90;;;;;;4201494;28;20094;-68
2023/02/14 07:11:19;;;;;;;19.00;12.23;;;6.50;99.90;;;;;;4201403;28;20054;-68
2023/02/14 07:13:20;;;;;;;26.10;14.30;;;6.60;99.90;;;;;;4199432;28;20044;-69
2023/02/14 07:15:20;;;;;;;26.90;14.60;;;6.50;99.90;;;;;;4198360;28;20048;-68
2023/02/14 07:17:21;;;;;;;28.92;16.42;;;6.50;99.90;;;;;;4198652;28;20043;-69
2023/02/14 07:19:21;;;;;;;27.23;15.43;;;6.50;99.90;;;;;;4200464;28;20047;-68
2023/02/14 07:21:22;;;;;;;24.73;14.75;;;6.50;99.90;;;;;;4200620;28;20036;-66
2023/02/14 07:23:23;;;;;;;23.50;14.93;;;6.50;99.90;;;;;;4204545;28;20040;-68
2023/02/14 07:25:23;;;;;;;25.35;15.15;;;6.50;99.90;;;;;;4202406;28;20089;-67
2023/02/14 07:27:24;;;;;;;25.67;14.52;;;6.50;99.90;;;;;;4202040;28;20135;-68
2023/02/14 07:29:25;;;;;;;22.00;13.50;;;6.50;99.90;;;;;;4202673;28;20052;-68
2023/02/14 07:31:25;;;;;;;25.52;15.45;;;6.50;99.90;;;;;;4200864;28;20045;-68
2023/02/14 07:33:26;;;;;;;24.98;14.77;;;6.60;99.90;;;;;;4201360;28;20043;-68
2023/02/14 07:35:27;;;;;;;23.13;13.90;;;6.50;99.90;;;;;;4201858;28;20397;-68
2023/02/14 07:37:27;;;;;;;21.75;13.18;;;6.50;99.90;;;;;;4201940;28;20041;-68
2023/02/14 07:39:28;;;;;;;23.88;14.25;;;6.50;99.90;;;;;;4202077;28;20403;-68
2023/02/14 07:41:28;;;;;;;30.77;15.52;;;6.50;99.90;;;;;;4202544;28;20089;-68
2023/02/14 07:43:29;;;;;;;24.65;14.05;;;6.60;99.90;;;;;;4203913;28;20028;-69
2023/02/14 07:45:30;;;;;;;25.27;14.93;;;6.60;99.90;;;;;;4205368;28;20209;-69
2023/02/14 07:47:30;;;;;;;23.27;13.82;;;6.60;99.90;;;;;;4201529;28;20043;-68
2023/02/14 07:49:31;;;;;;;23.13;14.57;;;6.60;99.90;;;;;;4198415;28;20105;-69
2023/02/14 07:51:31;;;;;;;24.25;14.52;;;6.60;99.90;;;;;;4205826;28;20114;-68
2023/02/14 07:53:32;;;;;;;25.27;15.23;;;6.60;99.90;;;;;;4200475;28;20029;-69
2023/02/14 07:55:33;;;;;;;27.20;15.32;;;6.80;99.90;;;;;;4202410;28;20500;-68
2023/02/14 07:57:34;;;;;;;23.30;14.65;;;6.90;99.90;;;;;;4199121;28;20066;-68
2023/02/14 07:59:34;;;;;;;24.17;14.75;;;7.20;99.90;;;;;;4202934;28;20028;-68
2023/02/14 08:01:35;;;;;;;20.83;13.80;;;7.40;99.90;;;;;;4201649;28;20040;-69
2023/02/14 08:03:35;;;;;;;25.27;14.65;;;7.70;99.90;;;;;;4201999;28;20066;-69
2023/02/14 08:05:36;;;;;;;23.08;14.05;;;8.00;99.90;;;;;;4201967;28;20036;-69
2023/02/14 08:07:36;;;;;;;24.85;13.55;;;8.30;99.90;;;;;;4201242;28;20040;-69
2023/02/14 08:09:37;;;;;;;19.75;12.90;;;8.60;99.90;;;;;;4205898;28;20028;-69
2023/02/14 08:13:57;;;;;;;22.02;13.50;;;9.10;99.90;;;;;;4203891;28;22433;-69
2023/02/14 08:16:03;;;;;;;20.50;13.27;;;9.50;99.90;;;;;;4204594;28;20040;-69
2023/02/14 08:18:04;;;;;;;21.38;13.23;;;9.80;99.90;;;;;;4203813;28;20028;-69
2023/02/14 08:20:06;;;;;;;20.83;12.70;;;10.10;99.90;;;;;;4202271;28;20036;-69
2023/02/14 08:22:07;;;;;;;20.77;12.68;;;10.30;99.90;;;;;;4200500;28;20495;-69
2023/02/14 08:24:07;;;;;;;21.55;13.13;;;10.60;99.90;;;;;;4204604;28;20048;-69
2023/02/14 08:26:08;;;;;;;22.15;13.20;;;10.90;99.90;;;;;;4207083;28;20487;-70
2023/02/14 08:28:09;;;;;;;21.77;13.60;;;11.20;99.90;;;;;;4207492;28;20140;-69
2023/02/14 08:30:10;;;;;;;21.13;12.82;;;11.40;99.90;;;;;;4207688;28;20472;-70
2023/02/14 08:32:10;;;;;;;21.70;13.43;;;11.60;99.90;;;;;;4204742;28;20024;-69
2023/02/14 08:34:11;;;;;;;19.75;12.15;;;11.80;99.90;;;;;;4207637;28;20113;-69
2023/02/14 08:36:12;;;;;;;19.20;12.35;;;12.00;99.90;;;;;;4206609;28;20028;-70
2023/02/14 08:38:13;;;;;;;22.52;14.52;;;12.20;99.90;;;;;;4206168;28;20039;-67
2023/02/14 08:40:14;;;;;;;19.95;13.48;;;12.40;99.90;;;;;;4205207;28;20032;-67
2023/02/14 08:42:14;;;;;;;19.90;13.07;;;12.50;99.90;;;;;;4206771;28;20119;-67
2023/02/14 08:44:15;;;;;;;20.42;13.32;;;12.60;99.90;;;;;;4206978;28;20043;-67
2023/02/14 08:46:16;;;;;;;19.85;13.30;;;12.80;99.90;;;;;;4205907;28;20067;-67
2023/02/14 08:48:16;;;;;;;20.42;13.73;;;13.00;99.90;;;;;;4207291;28;20166;-68
2023/02/14 08:50:17;;;;;;;21.08;12.70;;;13.00;99.90;;;;;;4204912;28;20411;-67
2023/02/14 08:52:18;;;;;;;20.58;13.07;;;13.20;99.90;;;;;;4206943;28;20040;-67
2023/02/14 08:54:19;;;;;;;19.10;12.35;;;13.50;99.90;;;;;;4204810;28;20129;-67
2023/02/14 08:56:21;;;;;;;21.48;13.25;;;13.50;99.90;;;;;;4204698;28;20051;-68
2023/02/14 08:58:22;;;;;;;18.08;13.18;;;13.60;99.90;;;;;;4207013;28;20044;-67
2023/02/14 09:00:22;;;;;;;19.52;12.20;;;13.80;99.90;;;;;;4206884;28;20051;-67
2023/02/14 09:02:23;;;;;;;18.10;12.68;;;14.00;99.90;;;;;;4205367;28;21045;-67
2023/02/14 09:04:23;;;;;;;20.17;13.43;;;14.30;99.90;;;;;;4205151;28;20040;-67
2023/02/14 09:06:25;;;;;;;17.83;12.65;;;14.40;99.90;;;;;;4208017;28;20454;-67
2023/02/14 09:08:25;;;;;;;18.38;12.73;;;14.40;99.90;;;;;;4204718;28;20047;-68
2023/02/14 09:10:27;;;;;;;19.50;12.57;;;14.40;99.90;;;;;;4206669;28;20391;-67
2023/02/14 09:12:27;;;;;;;21.45;13.60;;;14.30;99.90;;;;;;4206421;28;20032;-67
2023/02/14 09:14:28;;;;;;;19.70;12.98;;;14.30;99.90;;;;;;4206085;28;20064;-68
2023/02/14 09:16:28;;;;;;;19.63;12.98;;;14.30;99.90;;;;;;4206139;28;20032;-67
2023/02/14 09:18:29;;;;;;;19.98;13.05;;;14.20;99.90;;;;;;4205305;28;20519;-67
2023/02/14 09:20:30;;;;;;;21.90;13.88;;;14.20;99.90;;;;;;4207132;28;20032;-67
2023/02/14 09:22:30;;;;;;;18.27;11.82;;;14.00;99.90;;;;;;4207550;28;20487;-67
2023/02/14 09:24:32;;;;;;;19.88;12.55;;;14.00;99.90;;;;;;4205486;28;20033;-67
2023/02/14 09:26:35;;;;;;;19.75;12.25;;;13.90;99.90;;;;;;4197704;28;20131;-68
2023/02/14 09:28:36;;;;;;;21.98;13.27;;;13.80;99.90;;;;;;4174643;28;20021;-67
2023/02/14 09:30:37;;;;;;;21.33;13.15;;;13.70;99.90;;;;;;4193246;28;20048;-69
2023/02/14 09:32:38;;;;;;;22.08;13.88;;;13.60;99.90;;;;;;4192758;28;20531;-67
2023/02/14 09:39:17;;;;;;;20.95;13.32;;;13.20;99.90;;;;;;4190720;28;20037;-68
2023/02/14 09:41:30;;;;;;;21.48;14.15;;;13.20;99.90;;;;;;4192460;28;20043;-67
2023/02/14 09:43:40;;;;;;;24.85;15.40;;;13.00;99.90;;;;;;4193106;28;20028;-68
2023/02/14 09:45:46;;;;;;;23.70;13.55;;;12.90;99.90;;;;;;4183526;28;20033;-67
2023/02/14 09:47:53;;;;;;;20.75;13.10;;;13.00;99.90;;;;;;4191947;28;20152;-68
2023/02/14 09:49:54;;;;;;;18.92;12.93;;;12.90;99.90;;;;;;4191365;28;20035;-68
2023/02/14 09:51:55;;;;;;;23.85;13.85;;;13.00;99.90;;;;;;4189845;28;20040;-67
2023/02/14 09:54:10;;;;;;;23.50;14.45;;;13.00;99.90;;;;;;4193736;28;20032;-68
2023/02/14 09:56:19;;;;;;;21.02;13.45;;;13.00;99.90;;;;;;4164786;28;20612;-68
2023/02/14 09:58:32;;;;;;;24.88;15.13;;;13.00;99.90;;;;;;4166273;28;20041;-67
2023/02/14 10:01:00;;;;;;;24.67;15.00;;;12.90;99.90;;;;;;4168387;28;20036;-67
2023/02/14 10:03:42;;;;;;;26.85;16.38;;;12.90;99.90;;;;;;4168092;28;20025;-68
2023/02/14 10:06:12;;;;;;;23.83;14.98;;;12.70;99.90;;;;;;4160583;28;20030;-67
2023/02/14 10:08:34;;;;;;;20.80;13.38;;;12.70;99.90;;;;;;4180344;28;20032;-68
2023/02/14 10:10:40;;;;;;;23.65;14.00;;;12.70;99.90;;;;;;4183983;28;20431;-68
2023/02/14 10:12:46;;;;;;;23.48;14.88;;;12.70;99.90;;;;;;4181381;28;20031;-67
2023/02/14 10:14:48;;;;;;;28.13;15.70;;;12.50;99.90;;;;;;4184117;28;20040;-67
2023/02/14 10:17:00;;;;;;;24.08;14.43;;;12.60;99.90;;;;;;4182171;28;20135;-67
2023/02/14 10:19:39;;;;;;;24.48;16.30;;;12.60;99.90;;;;;;4182829;28;20037;-68
2023/02/14 10:21:43;;;;;;;25.48;16.25;;;12.50;99.90;;;;;;4182761;28;20082;-67
2023/02/14 10:24:01;;;;;;;24.63;14.80;;;12.40;99.90;;;;;;4181306;28;20044;-67
2023/02/14 10:26:04;;;;;;;19.42;13.57;;;12.20;99.90;;;;;;4188390;28;20048;-67
2023/02/14 10:28:11;;;;;;;27.50;15.70;;;12.30;99.90;;;;;;4199936;28;20030;-67
2023/02/14 10:30:17;;;;;;;31.00;16.92;;;12.40;99.90;;;;;;4205894;28;20028;-68
2023/02/14 10:32:28;;;;;;;27.00;15.38;;;12.30;99.90;;;;;;4192304;28;20037;-67
2023/02/14 10:34:49;;;;;;;22.52;15.13;;;12.30;99.90;;;;;;4191526;28;20050;-67
2023/02/14 10:37:20;;;;;;;23.05;14.07;;;12.40;99.90;;;;;;4184635;28;20028;-67
2023/02/14 10:39:29;;;;;;;25.48;14.95;;;12.40;99.90;;;;;;4196710;28;20033;-68
2023/02/14 10:41:39;;;;;;;24.52;15.50;;;12.50;99.90;;;;;;4196512;28;20033;-67
2023/02/14 10:43:59;;;;;;;28.38;15.00;;;12.50;99.90;;;;;;4185287;28;20024;-68
2023/02/14 10:46:03;;;;;;;22.00;14.05;;;12.60;99.90;;;;;;4180325;28;20028;-67
2023/02/14 10:48:20;;;;;;;25.17;15.63;;;12.60;99.90;;;;;;4183761;28;20389;-67
2023/02/14 10:50:47;;;;;;;27.92;15.43;;;12.50;99.90;;;;;;4195115;28;20556;-67
2023/02/14 10:53:26;;;;;;;22.83;14.55;;;12.50;99.90;;;;;;4196287;28;20107;-67
2023/02/14 10:55:42;;;;;;;21.52;13.82;;;12.50;99.90;;;;;;4205695;28;20542;-67
2023/02/14 10:57:49;;;;;;;28.50;14.82;;;12.70;99.90;;;;;;4203783;28;20073;-67
2023/02/14 11:00:00;;;;;;;20.77;13.90;;;12.60;99.90;;;;;;4204695;28;20078;-67
2023/02/14 11:02:01;;;;;;;20.73;13.13;;;12.70;99.90;;;;;;4205871;28;20940;-67
2023/02/14 11:04:05;;;;;;;22.00;13.57;;;12.70;99.90;;;;;;4206036;28;20032;-67
2023/02/14 11:06:07;;;;;;;25.00;15.25;;;12.70;99.90;;;;;;4205451;28;20024;-67
2023/02/14 11:08:31;;;;;;;21.58;14.30;;;12.70;99.90;;;;;;4206416;28;20035;-67